sensor_id;sensor_type;location;lat;lon;timestamp;P1;durP1;ratioP1;P2;durP2;ratioP2
6821;SDS011;3449;48.728;8.968;2022-08-19T00:01:49;25.17;;;18.27;;
6821;SDS011;3449;48.728;8.968;2022-08-19T00:04:18;23.53;;;18.00;;
6821;SDS011;3449;48.728;8.968;2022-08-19T00:06:46;24.67;;;17.97;;
6821;SDS011;3449;48.728;8.968;2022-08-19T00:09:15;22.87;;;17.43;;
6821;SDS011;3449;48.728;8.968;2022-08-19T00:11:44;26.70;;;19.00;;
6821;SDS011;3449;48.728;8.968;2022-08-19T00:14:14;25.10;;;17.83;;
6821;SDS011;3449;48.728;8.968;2022-08-19T00:16:43;29.07;;;18.73;;
6821;SDS011;3449;48.728;8.968;2022-08-19T00:19:12;26.47;;;18.30;;
6821;SDS011;3449;48.728;8.968;2022-08-19T00:21:39;25.50;;;18.43;;
6821;SDS011;3449;48.728;8.968;2022-08-19T00:24:07;32.13;;;20.50;;
6821;SDS011;3449;48.728;8.968;2022-08-19T00:26:34;30.20;;;19.93;;
6821;SDS011;3449;48.728;8.968;2022-08-19T00:29:02;30.23;;;20.30;;
6821;SDS011;3449;48.728;8.968;2022-08-19T00:31:31;29.60;;;20.13;;
6821;SDS011;3449;48.728;8.968;2022-08-19T00:33:59;30.10;;;20.13;;
6821;SDS011;3449;48.728;8.968;2022-08-19T00:36:26;25.17;;;19.50;;
6821;SDS011;3449;48.728;8.968;2022-08-19T00:38:53;27.07;;;18.70;;
6821;SDS011;3449;48.728;8.968;2022-08-19T00:41:21;27.77;;;20.40;;
6821;SDS011;3449;48.728;8.968;2022-08-19T00:44:00;31.17;;;19.80;;
6821;SDS011;3449;48.728;8.968;2022-08-19T00:46:29;31.07;;;19.80;;
6821;SDS011;3449;48.728;8.968;2022-08-19T00:49:00;28.80;;;20.93;;
6821;SDS011;3449;48.728;8.968;2022-08-19T00:51:32;30.67;;;19.50;;
6821;SDS011;3449;48.728;8.968;2022-08-19T00:54:00;34.60;;;21.90;;
6821;SDS011;3449;48.728;8.968;2022-08-19T00:56:29;35.90;;;22.20;;
6821;SDS011;3449;48.728;8.968;2022-08-19T00:58:57;28.70;;;19.73;;
6821;SDS011;3449;48.728;8.968;2022-08-19T01:01:26;29.07;;;20.83;;
6821;SDS011;3449;48.728;8.968;2022-08-19T01:03:55;28.77;;;20.23;;
6821;SDS011;3449;48.728;8.968;2022-08-19T01:06:22;30.00;;;20.87;;
6821;SDS011;3449;48.728;8.968;2022-08-19T01:08:49;26.97;;;19.87;;
6821;SDS011;3449;48.728;8.968;2022-08-19T01:11:16;28.43;;;21.20;;
6821;SDS011;3449;48.728;8.968;2022-08-19T01:13:43;27.70;;;21.40;;
6821;SDS011;3449;48.728;8.968;2022-08-19T01:16:12;29.43;;;20.77;;
6821;SDS011;3449;48.728;8.968;2022-08-19T01:18:40;27.70;;;21.20;;
6821;SDS011;3449;48.728;8.968;2022-08-19T01:21:11;27.30;;;20.53;;
6821;SDS011;3449;48.728;8.968;2022-08-19T01:23:46;30.13;;;21.37;;
6821;SDS011;3449;48.728;8.968;2022-08-19T01:26:14;32.30;;;22.70;;
6821;SDS011;3449;48.728;8.968;2022-08-19T01:28:43;31.03;;;21.70;;
6821;SDS011;3449;48.728;8.968;2022-08-19T01:31:12;33.90;;;21.73;;
6821;SDS011;3449;48.728;8.968;2022-08-19T01:33:41;33.00;;;22.07;;
6821;SDS011;3449;48.728;8.968;2022-08-19T01:36:09;32.97;;;21.77;;
6821;SDS011;3449;48.728;8.968;2022-08-19T01:38:38;32.87;;;22.57;;
6821;SDS011;3449;48.728;8.968;2022-08-19T01:41:10;30.67;;;21.77;;
6821;SDS011;3449;48.728;8.968;2022-08-19T01:43:37;32.47;;;23.10;;
6821;SDS011;3449;48.728;8.968;2022-08-19T01:46:04;31.77;;;21.70;;
6821;SDS011;3449;48.728;8.968;2022-08-19T01:48:35;29.90;;;21.80;;
6821;SDS011;3449;48.728;8.968;2022-08-19T01:51:03;34.80;;;23.07;;
6821;SDS011;3449;48.728;8.968;2022-08-19T01:53:30;33.63;;;23.90;;
6821;SDS011;3449;48.728;8.968;2022-08-19T01:55:57;32.73;;;22.67;;
6821;SDS011;3449;48.728;8.968;2022-08-19T01:58:27;38.77;;;23.30;;
6821;SDS011;3449;48.728;8.968;2022-08-19T02:00:56;32.50;;;23.77;;
6821;SDS011;3449;48.728;8.968;2022-08-19T02:03:23;34.23;;;24.10;;
6821;SDS011;3449;48.728;8.968;2022-08-19T02:05:53;41.63;;;23.57;;
6821;SDS011;3449;48.728;8.968;2022-08-19T02:08:21;33.40;;;23.40;;
6821;SDS011;3449;48.728;8.968;2022-08-19T02:10:48;35.83;;;24.80;;
6821;SDS011;3449;48.728;8.968;2022-08-19T02:13:16;33.43;;;23.23;;
6821;SDS011;3449;48.728;8.968;2022-08-19T02:15:44;36.60;;;23.67;;
6821;SDS011;3449;48.728;8.968;2022-08-19T02:18:11;34.93;;;23.90;;
6821;SDS011;3449;48.728;8.968;2022-08-19T02:20:39;36.30;;;24.30;;
6821;SDS011;3449;48.728;8.968;2022-08-19T02:23:07;37.60;;;26.03;;
6821;SDS011;3449;48.728;8.968;2022-08-19T02:25:35;35.33;;;25.93;;
6821;SDS011;3449;48.728;8.968;2022-08-19T02:28:02;35.00;;;24.50;;
6821;SDS011;3449;48.728;8.968;2022-08-19T02:30:30;36.60;;;24.90;;
6821;SDS011;3449;48.728;8.968;2022-08-19T02:32:58;36.73;;;24.73;;
6821;SDS011;3449;48.728;8.968;2022-08-19T02:35:25;33.87;;;25.20;;
6821;SDS011;3449;48.728;8.968;2022-08-19T02:37:52;43.93;;;25.03;;
6821;SDS011;3449;48.728;8.968;2022-08-19T02:40:37;44.17;;;26.00;;
6821;SDS011;3449;48.728;8.968;2022-08-19T02:43:04;36.70;;;25.40;;
6821;SDS011;3449;48.728;8.968;2022-08-19T02:45:33;37.93;;;27.73;;
6821;SDS011;3449;48.728;8.968;2022-08-19T02:48:03;43.60;;;26.30;;
6821;SDS011;3449;48.728;8.968;2022-08-19T02:50:30;38.07;;;24.70;;
6821;SDS011;3449;48.728;8.968;2022-08-19T02:52:58;36.60;;;25.67;;
6821;SDS011;3449;48.728;8.968;2022-08-19T02:55:24;34.63;;;25.37;;
6821;SDS011;3449;48.728;8.968;2022-08-19T02:57:51;36.37;;;26.67;;
6821;SDS011;3449;48.728;8.968;2022-08-19T03:00:19;41.33;;;26.77;;
6821;SDS011;3449;48.728;8.968;2022-08-19T03:02:46;40.77;;;25.53;;
6821;SDS011;3449;48.728;8.968;2022-08-19T03:05:15;40.00;;;26.80;;
6821;SDS011;3449;48.728;8.968;2022-08-19T03:07:42;34.97;;;26.10;;
6821;SDS011;3449;48.728;8.968;2022-08-19T03:10:09;43.70;;;27.47;;
6821;SDS011;3449;48.728;8.968;2022-08-19T03:12:36;37.70;;;26.90;;
6821;SDS011;3449;48.728;8.968;2022-08-19T03:15:04;42.17;;;27.40;;
6821;SDS011;3449;48.728;8.968;2022-08-19T03:17:32;36.97;;;26.67;;
6821;SDS011;3449;48.728;8.968;2022-08-19T03:20:00;36.30;;;27.90;;
6821;SDS011;3449;48.728;8.968;2022-08-19T03:22:28;40.60;;;27.20;;
6821;SDS011;3449;48.728;8.968;2022-08-19T03:24:55;43.47;;;28.37;;
6821;SDS011;3449;48.728;8.968;2022-08-19T03:27:24;39.10;;;28.90;;
6821;SDS011;3449;48.728;8.968;2022-08-19T03:29:51;42.07;;;29.40;;
6821;SDS011;3449;48.728;8.968;2022-08-19T03:32:18;38.07;;;28.57;;
6821;SDS011;3449;48.728;8.968;2022-08-19T03:34:46;42.03;;;29.00;;
6821;SDS011;3449;48.728;8.968;2022-08-19T03:37:14;44.87;;;28.87;;
6821;SDS011;3449;48.728;8.968;2022-08-19T03:39:42;48.40;;;32.33;;
6821;SDS011;3449;48.728;8.968;2022-08-19T03:42:09;44.27;;;31.60;;
6821;SDS011;3449;48.728;8.968;2022-08-19T03:44:37;50.03;;;30.70;;
6821;SDS011;3449;48.728;8.968;2022-08-19T03:47:04;45.43;;;30.27;;
6821;SDS011;3449;48.728;8.968;2022-08-19T03:49:32;44.80;;;30.37;;
6821;SDS011;3449;48.728;8.968;2022-08-19T03:52:00;42.90;;;29.80;;
6821;SDS011;3449;48.728;8.968;2022-08-19T03:54:29;43.93;;;30.97;;
6821;SDS011;3449;48.728;8.968;2022-08-19T03:56:58;46.50;;;32.27;;
6821;SDS011;3449;48.728;8.968;2022-08-19T03:59:26;46.30;;;31.40;;
6821;SDS011;3449;48.728;8.968;2022-08-19T04:01:56;43.77;;;30.87;;
6821;SDS011;3449;48.728;8.968;2022-08-19T04:04:24;42.00;;;31.30;;
6821;SDS011;3449;48.728;8.968;2022-08-19T04:06:52;41.27;;;29.53;;
6821;SDS011;3449;48.728;8.968;2022-08-19T04:09:19;43.03;;;30.67;;
6821;SDS011;3449;48.728;8.968;2022-08-19T04:11:47;42.53;;;29.23;;
6821;SDS011;3449;48.728;8.968;2022-08-19T04:14:19;43.17;;;30.90;;
6821;SDS011;3449;48.728;8.968;2022-08-19T04:16:49;45.13;;;30.70;;
6821;SDS011;3449;48.728;8.968;2022-08-19T04:19:16;45.53;;;31.43;;
6821;SDS011;3449;48.728;8.968;2022-08-19T04:21:46;51.33;;;32.23;;
6821;SDS011;3449;48.728;8.968;2022-08-19T04:24:15;42.80;;;31.53;;
6821;SDS011;3449;48.728;8.968;2022-08-19T04:26:42;44.27;;;30.97;;
6821;SDS011;3449;48.728;8.968;2022-08-19T04:29:10;47.37;;;31.60;;
6821;SDS011;3449;48.728;8.968;2022-08-19T04:31:40;47.73;;;32.03;;
6821;SDS011;3449;48.728;8.968;2022-08-19T04:34:10;47.70;;;31.93;;
6821;SDS011;3449;48.728;8.968;2022-08-19T04:36:39;45.03;;;32.60;;
6821;SDS011;3449;48.728;8.968;2022-08-19T04:39:08;44.47;;;31.77;;
6821;SDS011;3449;48.728;8.968;2022-08-19T04:41:37;50.00;;;34.00;;
6821;SDS011;3449;48.728;8.968;2022-08-19T04:44:21;47.63;;;32.77;;
6821;SDS011;3449;48.728;8.968;2022-08-19T04:46:50;49.30;;;30.70;;
6821;SDS011;3449;48.728;8.968;2022-08-19T04:49:18;43.10;;;31.33;;
6821;SDS011;3449;48.728;8.968;2022-08-19T04:51:47;45.63;;;31.17;;
6821;SDS011;3449;48.728;8.968;2022-08-19T04:54:14;52.90;;;33.63;;
6821;SDS011;3449;48.728;8.968;2022-08-19T04:56:42;50.00;;;32.73;;
6821;SDS011;3449;48.728;8.968;2022-08-19T04:59:09;47.50;;;32.07;;
6821;SDS011;3449;48.728;8.968;2022-08-19T05:01:36;49.30;;;33.60;;
6821;SDS011;3449;48.728;8.968;2022-08-19T05:04:05;56.27;;;33.30;;
6821;SDS011;3449;48.728;8.968;2022-08-19T05:06:34;47.57;;;31.90;;
6821;SDS011;3449;48.728;8.968;2022-08-19T05:09:02;49.10;;;34.20;;
6821;SDS011;3449;48.728;8.968;2022-08-19T05:11:31;51.07;;;32.80;;
6821;SDS011;3449;48.728;8.968;2022-08-19T05:14:00;55.83;;;34.97;;
6821;SDS011;3449;48.728;8.968;2022-08-19T05:16:27;49.43;;;33.30;;
6821;SDS011;3449;48.728;8.968;2022-08-19T05:18:55;45.63;;;31.67;;
6821;SDS011;3449;48.728;8.968;2022-08-19T05:21:41;45.23;;;31.73;;
6821;SDS011;3449;48.728;8.968;2022-08-19T05:24:30;48.17;;;30.87;;
6821;SDS011;3449;48.728;8.968;2022-08-19T05:26:59;43.50;;;29.97;;
6821;SDS011;3449;48.728;8.968;2022-08-19T05:29:28;41.83;;;30.73;;
6821;SDS011;3449;48.728;8.968;2022-08-19T05:31:56;45.57;;;32.33;;
6821;SDS011;3449;48.728;8.968;2022-08-19T05:34:24;43.77;;;31.73;;
6821;SDS011;3449;48.728;8.968;2022-08-19T05:36:54;51.37;;;31.87;;
6821;SDS011;3449;48.728;8.968;2022-08-19T05:39:24;45.03;;;31.80;;
6821;SDS011;3449;48.728;8.968;2022-08-19T05:41:54;49.40;;;31.63;;
6821;SDS011;3449;48.728;8.968;2022-08-19T05:44:23;43.63;;;31.27;;
6821;SDS011;3449;48.728;8.968;2022-08-19T05:46:52;47.30;;;31.20;;
6821;SDS011;3449;48.728;8.968;2022-08-19T05:49:20;53.63;;;31.97;;
6821;SDS011;3449;48.728;8.968;2022-08-19T05:51:49;45.27;;;31.90;;
6821;SDS011;3449;48.728;8.968;2022-08-19T05:54:17;42.37;;;29.50;;
6821;SDS011;3449;48.728;8.968;2022-08-19T05:56:45;46.37;;;31.00;;
6821;SDS011;3449;48.728;8.968;2022-08-19T05:59:13;41.60;;;31.37;;
6821;SDS011;3449;48.728;8.968;2022-08-19T06:01:43;43.17;;;30.33;;
6821;SDS011;3449;48.728;8.968;2022-08-19T06:04:11;44.63;;;30.50;;
6821;SDS011;3449;48.728;8.968;2022-08-19T06:06:39;50.40;;;31.73;;
6821;SDS011;3449;48.728;8.968;2022-08-19T06:09:07;47.93;;;30.83;;
6821;SDS011;3449;48.728;8.968;2022-08-19T06:11:38;54.80;;;31.50;;
6821;SDS011;3449;48.728;8.968;2022-08-19T06:14:09;40.90;;;29.70;;
6821;SDS011;3449;48.728;8.968;2022-08-19T06:16:38;43.40;;;30.33;;
6821;SDS011;3449;48.728;8.968;2022-08-19T06:19:09;45.83;;;31.50;;
6821;SDS011;3449;48.728;8.968;2022-08-19T06:21:38;45.63;;;31.63;;
6821;SDS011;3449;48.728;8.968;2022-08-19T06:24:07;41.87;;;30.37;;
6821;SDS011;3449;48.728;8.968;2022-08-19T06:26:39;43.80;;;31.20;;
6821;SDS011;3449;48.728;8.968;2022-08-19T06:29:08;41.50;;;30.47;;
6821;SDS011;3449;48.728;8.968;2022-08-19T06:31:37;43.60;;;29.83;;
6821;SDS011;3449;48.728;8.968;2022-08-19T06:34:08;45.77;;;30.63;;
6821;SDS011;3449;48.728;8.968;2022-08-19T06:36:36;41.60;;;29.30;;
6821;SDS011;3449;48.728;8.968;2022-08-19T06:39:06;40.37;;;30.03;;
6821;SDS011;3449;48.728;8.968;2022-08-19T06:41:35;41.20;;;30.43;;
6821;SDS011;3449;48.728;8.968;2022-08-19T06:44:06;40.70;;;28.70;;
6821;SDS011;3449;48.728;8.968;2022-08-19T06:46:34;45.53;;;28.63;;
6821;SDS011;3449;48.728;8.968;2022-08-19T06:49:02;50.63;;;31.73;;
6821;SDS011;3449;48.728;8.968;2022-08-19T06:51:29;38.17;;;28.37;;
6821;SDS011;3449;48.728;8.968;2022-08-19T06:53:59;43.87;;;26.30;;
6821;SDS011;3449;48.728;8.968;2022-08-19T06:56:27;39.33;;;29.47;;
6821;SDS011;3449;48.728;8.968;2022-08-19T06:59:00;42.73;;;29.07;;
6821;SDS011;3449;48.728;8.968;2022-08-19T07:01:27;35.97;;;25.93;;
6821;SDS011;3449;48.728;8.968;2022-08-19T07:03:54;41.00;;;27.93;;
6821;SDS011;3449;48.728;8.968;2022-08-19T07:06:21;37.97;;;27.27;;
6821;SDS011;3449;48.728;8.968;2022-08-19T07:08:48;35.83;;;26.57;;
6821;SDS011;3449;48.728;8.968;2022-08-19T07:11:17;36.40;;;27.20;;
6821;SDS011;3449;48.728;8.968;2022-08-19T07:13:45;38.40;;;26.47;;
6821;SDS011;3449;48.728;8.968;2022-08-19T07:16:16;38.13;;;28.10;;
6821;SDS011;3449;48.728;8.968;2022-08-19T07:18:45;39.60;;;27.70;;
6821;SDS011;3449;48.728;8.968;2022-08-19T07:21:13;40.23;;;26.83;;
6821;SDS011;3449;48.728;8.968;2022-08-19T07:23:42;37.07;;;25.50;;
6821;SDS011;3449;48.728;8.968;2022-08-19T07:26:10;36.93;;;28.00;;
6821;SDS011;3449;48.728;8.968;2022-08-19T07:28:40;34.77;;;25.17;;
6821;SDS011;3449;48.728;8.968;2022-08-19T07:31:10;36.37;;;27.93;;
6821;SDS011;3449;48.728;8.968;2022-08-19T07:33:39;38.43;;;27.50;;
6821;SDS011;3449;48.728;8.968;2022-08-19T07:36:08;43.90;;;27.23;;
6821;SDS011;3449;48.728;8.968;2022-08-19T07:38:38;38.03;;;26.27;;
6821;SDS011;3449;48.728;8.968;2022-08-19T07:41:07;31.63;;;23.77;;
6821;SDS011;3449;48.728;8.968;2022-08-19T07:43:37;33.30;;;25.97;;
6821;SDS011;3449;48.728;8.968;2022-08-19T07:46:04;32.93;;;25.33;;
6821;SDS011;3449;48.728;8.968;2022-08-19T07:48:32;39.03;;;25.50;;
6821;SDS011;3449;48.728;8.968;2022-08-19T07:51:01;34.97;;;24.57;;
6821;SDS011;3449;48.728;8.968;2022-08-19T07:53:30;37.60;;;26.53;;
6821;SDS011;3449;48.728;8.968;2022-08-19T07:55:58;39.20;;;24.47;;
6821;SDS011;3449;48.728;8.968;2022-08-19T07:58:29;30.97;;;24.00;;
6821;SDS011;3449;48.728;8.968;2022-08-19T08:00:56;32.93;;;22.27;;
6821;SDS011;3449;48.728;8.968;2022-08-19T08:03:24;31.70;;;22.80;;
6821;SDS011;3449;48.728;8.968;2022-08-19T08:06:13;26.73;;;22.63;;
6821;SDS011;3449;48.728;8.968;2022-08-19T08:08:58;34.17;;;22.83;;
6821;SDS011;3449;48.728;8.968;2022-08-19T08:11:42;35.30;;;22.37;;
6821;SDS011;3449;48.728;8.968;2022-08-19T08:14:14;30.00;;;22.93;;
6821;SDS011;3449;48.728;8.968;2022-08-19T08:16:42;32.53;;;23.80;;
6821;SDS011;3449;48.728;8.968;2022-08-19T08:19:10;37.93;;;22.07;;
6821;SDS011;3449;48.728;8.968;2022-08-19T08:21:41;28.70;;;22.50;;
6821;SDS011;3449;48.728;8.968;2022-08-19T08:24:08;33.10;;;23.63;;
6821;SDS011;3449;48.728;8.968;2022-08-19T08:26:36;31.80;;;21.93;;
6821;SDS011;3449;48.728;8.968;2022-08-19T08:29:04;34.13;;;23.73;;
6821;SDS011;3449;48.728;8.968;2022-08-19T08:31:32;32.30;;;23.00;;
6821;SDS011;3449;48.728;8.968;2022-08-19T08:33:59;25.63;;;20.53;;
6821;SDS011;3449;48.728;8.968;2022-08-19T08:36:26;33.27;;;22.60;;
6821;SDS011;3449;48.728;8.968;2022-08-19T08:38:55;30.90;;;22.40;;
6821;SDS011;3449;48.728;8.968;2022-08-19T08:41:22;34.80;;;24.10;;
6821;SDS011;3449;48.728;8.968;2022-08-19T08:43:58;33.00;;;23.47;;
6821;SDS011;3449;48.728;8.968;2022-08-19T08:46:27;32.63;;;23.77;;
6821;SDS011;3449;48.728;8.968;2022-08-19T08:49:06;33.10;;;21.80;;
6821;SDS011;3449;48.728;8.968;2022-08-19T08:51:46;31.97;;;23.77;;
6821;SDS011;3449;48.728;8.968;2022-08-19T08:54:20;32.10;;;22.63;;
6821;SDS011;3449;48.728;8.968;2022-08-19T08:56:57;31.27;;;23.00;;
6821;SDS011;3449;48.728;8.968;2022-08-19T08:59:24;30.27;;;20.47;;
6821;SDS011;3449;48.728;8.968;2022-08-19T09:01:56;27.50;;;21.03;;
6821;SDS011;3449;48.728;8.968;2022-08-19T09:04:23;34.50;;;22.60;;
6821;SDS011;3449;48.728;8.968;2022-08-19T09:06:53;28.30;;;21.10;;
6821;SDS011;3449;48.728;8.968;2022-08-19T09:09:28;25.63;;;20.47;;
6821;SDS011;3449;48.728;8.968;2022-08-19T09:12:03;29.20;;;19.40;;
6821;SDS011;3449;48.728;8.968;2022-08-19T09:14:38;25.00;;;20.60;;
6821;SDS011;3449;48.728;8.968;2022-08-19T09:17:12;29.50;;;23.20;;
6821;SDS011;3449;48.728;8.968;2022-08-19T09:19:46;36.63;;;22.40;;
6821;SDS011;3449;48.728;8.968;2022-08-19T09:22:18;36.47;;;22.00;;
6821;SDS011;3449;48.728;8.968;2022-08-19T09:24:48;31.13;;;22.20;;
6821;SDS011;3449;48.728;8.968;2022-08-19T09:27:17;27.10;;;20.80;;
6821;SDS011;3449;48.728;8.968;2022-08-19T09:29:45;28.00;;;20.50;;
6821;SDS011;3449;48.728;8.968;2022-08-19T09:32:13;26.80;;;21.03;;
6821;SDS011;3449;48.728;8.968;2022-08-19T09:34:40;28.03;;;20.03;;
6821;SDS011;3449;48.728;8.968;2022-08-19T09:37:08;27.47;;;19.80;;
6821;SDS011;3449;48.728;8.968;2022-08-19T09:39:35;25.67;;;19.80;;
6821;SDS011;3449;48.728;8.968;2022-08-19T09:42:05;30.57;;;21.83;;
6821;SDS011;3449;48.728;8.968;2022-08-19T09:44:36;30.80;;;20.23;;
6821;SDS011;3449;48.728;8.968;2022-08-19T09:47:03;27.80;;;20.07;;
6821;SDS011;3449;48.728;8.968;2022-08-19T09:49:30;26.80;;;20.40;;
6821;SDS011;3449;48.728;8.968;2022-08-19T09:51:57;23.00;;;20.17;;
6821;SDS011;3449;48.728;8.968;2022-08-19T09:54:25;23.40;;;19.37;;
6821;SDS011;3449;48.728;8.968;2022-08-19T09:56:52;36.47;;;23.03;;
6821;SDS011;3449;48.728;8.968;2022-08-19T09:59:21;26.00;;;20.87;;
6821;SDS011;3449;48.728;8.968;2022-08-19T10:01:49;25.10;;;19.60;;
6821;SDS011;3449;48.728;8.968;2022-08-19T10:04:16;28.10;;;19.80;;
6821;SDS011;3449;48.728;8.968;2022-08-19T10:06:44;21.90;;;18.80;;
6821;SDS011;3449;48.728;8.968;2022-08-19T10:09:13;24.27;;;19.47;;
6821;SDS011;3449;48.728;8.968;2022-08-19T10:11:42;27.37;;;19.83;;
6821;SDS011;3449;48.728;8.968;2022-08-19T10:14:13;33.27;;;19.30;;
6821;SDS011;3449;48.728;8.968;2022-08-19T10:16:43;26.60;;;19.47;;
6821;SDS011;3449;48.728;8.968;2022-08-19T10:19:09;25.97;;;17.70;;
6821;SDS011;3449;48.728;8.968;2022-08-19T10:21:36;25.10;;;16.63;;
6821;SDS011;3449;48.728;8.968;2022-08-19T10:24:04;19.77;;;15.27;;
6821;SDS011;3449;48.728;8.968;2022-08-19T10:26:32;25.07;;;14.60;;
6821;SDS011;3449;48.728;8.968;2022-08-19T10:29:02;22.10;;;15.53;;
6821;SDS011;3449;48.728;8.968;2022-08-19T10:31:31;22.80;;;13.67;;
6821;SDS011;3449;48.728;8.968;2022-08-19T10:34:01;20.10;;;14.53;;
6821;SDS011;3449;48.728;8.968;2022-08-19T10:36:28;16.83;;;13.33;;
6821;SDS011;3449;48.728;8.968;2022-08-19T10:38:58;26.27;;;13.77;;
6821;SDS011;3449;48.728;8.968;2022-08-19T10:41:28;15.80;;;12.17;;
6821;SDS011;3449;48.728;8.968;2022-08-19T10:43:58;15.47;;;11.73;;
6821;SDS011;3449;48.728;8.968;2022-08-19T10:46:27;13.93;;;11.27;;
6821;SDS011;3449;48.728;8.968;2022-08-19T10:48:57;19.40;;;12.13;;
6821;SDS011;3449;48.728;8.968;2022-08-19T10:51:27;20.57;;;12.80;;
6821;SDS011;3449;48.728;8.968;2022-08-19T10:54:11;19.90;;;12.80;;
6821;SDS011;3449;48.728;8.968;2022-08-19T10:56:38;17.07;;;13.53;;
6821;SDS011;3449;48.728;8.968;2022-08-19T10:59:17;15.63;;;13.10;;
6821;SDS011;3449;48.728;8.968;2022-08-19T11:01:47;19.47;;;15.17;;
6821;SDS011;3449;48.728;8.968;2022-08-19T11:04:14;21.23;;;15.63;;
6821;SDS011;3449;48.728;8.968;2022-08-19T11:06:43;15.97;;;13.60;;
6821;SDS011;3449;48.728;8.968;2022-08-19T11:09:12;19.70;;;13.80;;
6821;SDS011;3449;48.728;8.968;2022-08-19T11:11:40;19.53;;;13.33;;
6821;SDS011;3449;48.728;8.968;2022-08-19T11:14:07;18.37;;;13.30;;
6821;SDS011;3449;48.728;8.968;2022-08-19T11:16:36;25.40;;;13.20;;
6821;SDS011;3449;48.728;8.968;2022-08-19T11:19:04;16.37;;;12.50;;
6821;SDS011;3449;48.728;8.968;2022-08-19T11:21:34;13.13;;;10.80;;
6821;SDS011;3449;48.728;8.968;2022-08-19T11:24:05;13.60;;;12.20;;
6821;SDS011;3449;48.728;8.968;2022-08-19T11:26:34;17.90;;;11.70;;
6821;SDS011;3449;48.728;8.968;2022-08-19T11:29:03;18.67;;;11.00;;
6821;SDS011;3449;48.728;8.968;2022-08-19T11:31:31;12.30;;;11.00;;
6821;SDS011;3449;48.728;8.968;2022-08-19T11:34:01;15.00;;;10.90;;
6821;SDS011;3449;48.728;8.968;2022-08-19T11:36:30;12.27;;;10.97;;
6821;SDS011;3449;48.728;8.968;2022-08-19T11:38:58;17.63;;;12.53;;
6821;SDS011;3449;48.728;8.968;2022-08-19T11:41:27;18.63;;;12.83;;
6821;SDS011;3449;48.728;8.968;2022-08-19T11:43:54;14.87;;;11.53;;
6821;SDS011;3449;48.728;8.968;2022-08-19T11:46:22;12.47;;;9.33;;
6821;SDS011;3449;48.728;8.968;2022-08-19T11:48:51;13.90;;;10.30;;
6821;SDS011;3449;48.728;8.968;2022-08-19T11:51:20;18.83;;;10.80;;
6821;SDS011;3449;48.728;8.968;2022-08-19T11:53:49;11.03;;;9.90;;
6821;SDS011;3449;48.728;8.968;2022-08-19T11:56:17;12.20;;;9.90;;
6821;SDS011;3449;48.728;8.968;2022-08-19T11:58:46;11.70;;;8.87;;
6821;SDS011;3449;48.728;8.968;2022-08-19T12:01:14;10.80;;;8.70;;
6821;SDS011;3449;48.728;8.968;2022-08-19T12:03:42;14.53;;;8.50;;
6821;SDS011;3449;48.728;8.968;2022-08-19T12:06:12;10.30;;;9.03;;
6821;SDS011;3449;48.728;8.968;2022-08-19T12:08:40;9.43;;;8.30;;
6821;SDS011;3449;48.728;8.968;2022-08-19T12:11:08;17.00;;;7.70;;
6821;SDS011;3449;48.728;8.968;2022-08-19T12:13:36;9.50;;;8.17;;
6821;SDS011;3449;48.728;8.968;2022-08-19T12:16:08;9.60;;;8.30;;
6821;SDS011;3449;48.728;8.968;2022-08-19T12:18:37;16.50;;;8.20;;
6821;SDS011;3449;48.728;8.968;2022-08-19T12:21:04;10.27;;;7.53;;
6821;SDS011;3449;48.728;8.968;2022-08-19T12:23:31;15.60;;;8.10;;
6821;SDS011;3449;48.728;8.968;2022-08-19T12:25:58;11.67;;;7.27;;
6821;SDS011;3449;48.728;8.968;2022-08-19T12:28:25;9.50;;;7.33;;
6821;SDS011;3449;48.728;8.968;2022-08-19T12:30:52;11.13;;;6.70;;
6821;SDS011;3449;48.728;8.968;2022-08-19T12:33:20;7.37;;;6.63;;
6821;SDS011;3449;48.728;8.968;2022-08-19T12:35:50;10.00;;;7.43;;
6821;SDS011;3449;48.728;8.968;2022-08-19T12:38:17;8.30;;;7.10;;
6821;SDS011;3449;48.728;8.968;2022-08-19T12:40:45;9.57;;;7.57;;
6821;SDS011;3449;48.728;8.968;2022-08-19T12:43:13;10.30;;;6.73;;
6821;SDS011;3449;48.728;8.968;2022-08-19T12:45:40;7.40;;;6.70;;
6821;SDS011;3449;48.728;8.968;2022-08-19T12:48:08;8.77;;;6.77;;
6821;SDS011;3449;48.728;8.968;2022-08-19T12:50:38;8.40;;;6.97;;
6821;SDS011;3449;48.728;8.968;2022-08-19T12:53:05;11.40;;;7.37;;
6821;SDS011;3449;48.728;8.968;2022-08-19T12:55:32;9.10;;;6.90;;
6821;SDS011;3449;48.728;8.968;2022-08-19T12:58:00;8.33;;;7.53;;
6821;SDS011;3449;48.728;8.968;2022-08-19T13:00:27;7.10;;;6.50;;
6821;SDS011;3449;48.728;8.968;2022-08-19T13:02:57;11.03;;;7.13;;
6821;SDS011;3449;48.728;8.968;2022-08-19T13:05:25;9.50;;;7.20;;
6821;SDS011;3449;48.728;8.968;2022-08-19T13:07:56;8.00;;;7.20;;
6821;SDS011;3449;48.728;8.968;2022-08-19T13:10:25;11.37;;;7.10;;
6821;SDS011;3449;48.728;8.968;2022-08-19T13:12:54;9.33;;;7.20;;
6821;SDS011;3449;48.728;8.968;2022-08-19T13:15:22;16.70;;;8.10;;
6821;SDS011;3449;48.728;8.968;2022-08-19T13:17:50;9.10;;;7.10;;
6821;SDS011;3449;48.728;8.968;2022-08-19T13:20:21;9.50;;;6.20;;
6821;SDS011;3449;48.728;8.968;2022-08-19T13:22:48;8.60;;;6.73;;
6821;SDS011;3449;48.728;8.968;2022-08-19T13:25:18;6.53;;;5.83;;
6821;SDS011;3449;48.728;8.968;2022-08-19T13:27:46;9.20;;;7.33;;
6821;SDS011;3449;48.728;8.968;2022-08-19T13:30:15;7.70;;;6.83;;
6821;SDS011;3449;48.728;8.968;2022-08-19T13:33:00;8.00;;;6.37;;
6821;SDS011;3449;48.728;8.968;2022-08-19T13:35:42;8.83;;;7.77;;
6821;SDS011;3449;48.728;8.968;2022-08-19T13:38:12;11.43;;;8.57;;
6821;SDS011;3449;48.728;8.968;2022-08-19T13:40:42;14.00;;;8.93;;
6821;SDS011;3449;48.728;8.968;2022-08-19T13:43:10;12.10;;;8.40;;
6821;SDS011;3449;48.728;8.968;2022-08-19T13:45:37;9.80;;;8.87;;
6821;SDS011;3449;48.728;8.968;2022-08-19T13:48:04;11.20;;;8.63;;
6821;SDS011;3449;48.728;8.968;2022-08-19T13:50:34;11.60;;;9.03;;
6821;SDS011;3449;48.728;8.968;2022-08-19T13:53:05;8.20;;;7.40;;
6821;SDS011;3449;48.728;8.968;2022-08-19T13:55:33;11.07;;;9.00;;
6821;SDS011;3449;48.728;8.968;2022-08-19T13:58:02;13.10;;;8.93;;
6821;SDS011;3449;48.728;8.968;2022-08-19T14:00:31;11.17;;;8.80;;
6821;SDS011;3449;48.728;8.968;2022-08-19T14:03:00;15.50;;;9.27;;
6821;SDS011;3449;48.728;8.968;2022-08-19T14:05:28;14.33;;;10.10;;
6821;SDS011;3449;48.728;8.968;2022-08-19T14:07:56;10.77;;;8.77;;
6821;SDS011;3449;48.728;8.968;2022-08-19T14:10:24;13.00;;;8.67;;
6821;SDS011;3449;48.728;8.968;2022-08-19T14:12:52;9.63;;;8.70;;
6821;SDS011;3449;48.728;8.968;2022-08-19T14:15:22;9.03;;;8.20;;
6821;SDS011;3449;48.728;8.968;2022-08-19T14:17:49;8.83;;;8.03;;
6821;SDS011;3449;48.728;8.968;2022-08-19T14:20:16;8.80;;;8.00;;
6821;SDS011;3449;48.728;8.968;2022-08-19T14:22:44;11.37;;;7.90;;
6821;SDS011;3449;48.728;8.968;2022-08-19T14:25:13;12.90;;;8.17;;
6821;SDS011;3449;48.728;8.968;2022-08-19T14:27:42;11.13;;;8.23;;
6821;SDS011;3449;48.728;8.968;2022-08-19T14:30:10;8.27;;;7.23;;
6821;SDS011;3449;48.728;8.968;2022-08-19T14:32:41;10.10;;;8.33;;
6821;SDS011;3449;48.728;8.968;2022-08-19T14:35:09;9.23;;;8.43;;
6821;SDS011;3449;48.728;8.968;2022-08-19T14:37:37;14.83;;;8.53;;
6821;SDS011;3449;48.728;8.968;2022-08-19T14:40:06;9.80;;;7.70;;
6821;SDS011;3449;48.728;8.968;2022-08-19T14:42:34;12.43;;;7.80;;
6821;SDS011;3449;48.728;8.968;2022-08-19T14:45:01;9.67;;;8.67;;
6821;SDS011;3449;48.728;8.968;2022-08-19T14:47:29;9.07;;;8.17;;
6821;SDS011;3449;48.728;8.968;2022-08-19T14:49:58;9.03;;;7.87;;
6821;SDS011;3449;48.728;8.968;2022-08-19T14:52:25;8.90;;;8.00;;
6821;SDS011;3449;48.728;8.968;2022-08-19T14:54:52;9.43;;;8.43;;
6821;SDS011;3449;48.728;8.968;2022-08-19T14:57:19;14.50;;;7.87;;
6821;SDS011;3449;48.728;8.968;2022-08-19T14:59:46;11.50;;;9.27;;
6821;SDS011;3449;48.728;8.968;2022-08-19T15:02:13;8.83;;;7.93;;
6821;SDS011;3449;48.728;8.968;2022-08-19T15:04:40;7.63;;;6.77;;